sensor_id;sensor_type;location;lat;lon;timestamp;P1;durP1;ratioP1;P2;durP2;ratioP2
40122;SDS011;25832;45.490;4.912;2023-04-25T00:01:22;10.35;;;3.97;;
40122;SDS011;25832;45.490;4.912;2023-04-25T00:03:48;8.90;;;3.40;;
40122;SDS011;25832;45.490;4.912;2023-04-25T00:06:14;8.70;;;3.53;;
40122;SDS011;25832;45.490;4.912;2023-04-25T00:08:40;12.38;;;4.15;;
40122;SDS011;25832;45.490;4.912;2023-04-25T00:11:05;8.98;;;4.28;;
40122;SDS011;25832;45.490;4.912;2023-04-25T00:13:31;17.45;;;5.72;;
40122;SDS011;25832;45.490;4.912;2023-04-25T00:15:57;31.40;;;10.00;;
40122;SDS011;25832;45.490;4.912;2023-04-25T00:18:24;20.35;;;7.88;;
40122;SDS011;25832;45.490;4.912;2023-04-25T00:20:49;9.48;;;4.40;;
40122;SDS011;25832;45.490;4.912;2023-04-25T00:23:16;6.03;;;3.15;;
40122;SDS011;25832;45.490;4.912;2023-04-25T00:25:45;7.10;;;3.92;;
40122;SDS011;25832;45.490;4.912;2023-04-25T00:28:11;6.47;;;3.25;;
40122;SDS011;25832;45.490;4.912;2023-04-25T00:30:38;13.70;;;3.70;;
40122;SDS011;25832;45.490;4.912;2023-04-25T00:33:04;9.13;;;4.22;;
40122;SDS011;25832;45.490;4.912;2023-04-25T00:35:30;7.65;;;4.18;;
40122;SDS011;25832;45.490;4.912;2023-04-25T00:37:56;5.57;;;3.47;;
40122;SDS011;25832;45.490;4.912;2023-04-25T00:40:22;9.98;;;3.55;;
40122;SDS011;25832;45.490;4.912;2023-04-25T00:42:47;6.28;;;3.42;;
40122;SDS011;25832;45.490;4.912;2023-04-25T00:45:14;20.60;;;5.25;;
40122;SDS011;25832;45.490;4.912;2023-04-25T00:47:40;9.10;;;4.40;;
40122;SDS011;25832;45.490;4.912;2023-04-25T00:50:07;8.35;;;3.70;;
40122;SDS011;25832;45.490;4.912;2023-04-25T00:52:33;6.93;;;4.10;;
40122;SDS011;25832;45.490;4.912;2023-04-25T00:54:59;37.50;;;15.15;;
40122;SDS011;25832;45.490;4.912;2023-04-25T00:57:25;29.35;;;12.85;;
40122;SDS011;25832;45.490;4.912;2023-04-25T00:59:51;18.08;;;7.72;;
40122;SDS011;25832;45.490;4.912;2023-04-25T01:02:19;15.43;;;4.65;;
40122;SDS011;25832;45.490;4.912;2023-04-25T01:04:45;8.07;;;3.85;;
40122;SDS011;25832;45.490;4.912;2023-04-25T01:07:12;15.10;;;6.35;;
40122;SDS011;25832;45.490;4.912;2023-04-25T01:09:38;16.73;;;6.65;;
40122;SDS011;25832;45.490;4.912;2023-04-25T01:12:04;16.58;;;7.25;;
40122;SDS011;25832;45.490;4.912;2023-04-25T01:14:30;10.95;;;6.13;;
40122;SDS011;25832;45.490;4.912;2023-04-25T01:16:56;9.63;;;5.25;;
40122;SDS011;25832;45.490;4.912;2023-04-25T01:19:22;17.90;;;6.57;;
40122;SDS011;25832;45.490;4.912;2023-04-25T01:21:49;10.13;;;5.22;;
40122;SDS011;25832;45.490;4.912;2023-04-25T01:24:15;10.32;;;4.47;;
40122;SDS011;25832;45.490;4.912;2023-04-25T01:26:41;6.57;;;3.85;;
40122;SDS011;25832;45.490;4.912;2023-04-25T01:29:14;11.70;;;4.72;;
40122;SDS011;25832;45.490;4.912;2023-04-25T01:31:41;7.28;;;3.92;;
40122;SDS011;25832;45.490;4.912;2023-04-25T01:34:08;7.53;;;4.25;;
40122;SDS011;25832;45.490;4.912;2023-04-25T01:36:33;5.95;;;3.97;;
40122;SDS011;25832;45.490;4.912;2023-04-25T01:39:00;8.45;;;4.40;;
40122;SDS011;25832;45.490;4.912;2023-04-25T01:41:26;5.53;;;3.42;;
40122;SDS011;25832;45.490;4.912;2023-04-25T01:43:52;7.25;;;4.28;;
40122;SDS011;25832;45.490;4.912;2023-04-25T01:46:18;8.25;;;5.43;;
40122;SDS011;25832;45.490;4.912;2023-04-25T01:48:44;9.45;;;5.05;;
40122;SDS011;25832;45.490;4.912;2023-04-25T01:51:09;7.45;;;4.25;;
40122;SDS011;25832;45.490;4.912;2023-04-25T01:53:36;5.80;;;3.95;;
40122;SDS011;25832;45.490;4.912;2023-04-25T01:56:03;10.82;;;4.72;;
40122;SDS011;25832;45.490;4.912;2023-04-25T01:58:29;7.03;;;4.53;;
40122;SDS011;25832;45.490;4.912;2023-04-25T02:00:54;7.95;;;5.05;;
40122;SDS011;25832;45.490;4.912;2023-04-25T02:03:20;8.85;;;5.90;;
40122;SDS011;25832;45.490;4.912;2023-04-25T02:05:46;8.57;;;5.13;;
40122;SDS011;25832;45.490;4.912;2023-04-25T02:08:11;9.65;;;5.72;;
40122;SDS011;25832;45.490;4.912;2023-04-25T02:10:37;11.27;;;6.15;;
40122;SDS011;25832;45.490;4.912;2023-04-25T02:13:03;14.07;;;5.60;;
40122;SDS011;25832;45.490;4.912;2023-04-25T02:15:30;9.95;;;7.10;;
40122;SDS011;25832;45.490;4.912;2023-04-25T02:17:56;12.15;;;7.18;;
40122;SDS011;25832;45.490;4.912;2023-04-25T02:20:23;15.48;;;8.45;;
40122;SDS011;25832;45.490;4.912;2023-04-25T02:22:50;13.35;;;7.50;;
40122;SDS011;25832;45.490;4.912;2023-04-25T02:25:17;9.38;;;6.05;;
40122;SDS011;25832;45.490;4.912;2023-04-25T02:27:45;8.20;;;5.47;;
40122;SDS011;25832;45.490;4.912;2023-04-25T02:30:11;8.77;;;5.45;;
40122;SDS011;25832;45.490;4.912;2023-04-25T02:32:38;9.60;;;5.30;;
40122;SDS011;25832;45.490;4.912;2023-04-25T02:35:04;11.07;;;5.65;;
40122;SDS011;25832;45.490;4.912;2023-04-25T02:37:31;9.88;;;5.20;;
40122;SDS011;25832;45.490;4.912;2023-04-25T02:39:58;10.30;;;5.13;;
40122;SDS011;25832;45.490;4.912;2023-04-25T02:42:24;8.65;;;4.75;;
40122;SDS011;25832;45.490;4.912;2023-04-25T02:44:49;8.63;;;4.45;;
40122;SDS011;25832;45.490;4.912;2023-04-25T02:47:15;11.63;;;5.80;;
40122;SDS011;25832;45.490;4.912;2023-04-25T02:49:41;9.82;;;5.88;;
40122;SDS011;25832;45.490;4.912;2023-04-25T02:52:06;8.38;;;5.28;;
40122;SDS011;25832;45.490;4.912;2023-04-25T02:54:32;8.43;;;6.85;;
40122;SDS011;25832;45.490;4.912;2023-04-25T02:56:58;9.32;;;5.38;;
40122;SDS011;25832;45.490;4.912;2023-04-25T02:59:23;8.80;;;5.13;;
40122;SDS011;25832;45.490;4.912;2023-04-25T03:01:49;8.57;;;4.60;;
40122;SDS011;25832;45.490;4.912;2023-04-25T03:04:15;9.20;;;5.35;;
40122;SDS011;25832;45.490;4.912;2023-04-25T03:06:40;11.13;;;5.25;;
40122;SDS011;25832;45.490;4.912;2023-04-25T03:09:06;8.38;;;4.90;;
40122;SDS011;25832;45.490;4.912;2023-04-25T03:11:32;7.38;;;4.43;;
40122;SDS011;25832;45.490;4.912;2023-04-25T03:13:57;9.50;;;4.63;;
40122;SDS011;25832;45.490;4.912;2023-04-25T03:16:23;9.45;;;5.60;;
40122;SDS011;25832;45.490;4.912;2023-04-25T03:18:49;9.00;;;5.25;;
40122;SDS011;25832;45.490;4.912;2023-04-25T03:21:15;8.43;;;5.45;;
40122;SDS011;25832;45.490;4.912;2023-04-25T03:23:41;8.60;;;5.13;;
40122;SDS011;25832;45.490;4.912;2023-04-25T03:26:07;8.38;;;5.43;;
40122;SDS011;25832;45.490;4.912;2023-04-25T03:28:33;9.70;;;5.50;;
40122;SDS011;25832;45.490;4.912;2023-04-25T03:30:58;12.30;;;6.03;;
40122;SDS011;25832;45.490;4.912;2023-04-25T03:33:24;11.02;;;6.53;;
40122;SDS011;25832;45.490;4.912;2023-04-25T03:35:50;14.60;;;7.65;;
40122;SDS011;25832;45.490;4.912;2023-04-25T03:38:16;20.10;;;8.73;;
40122;SDS011;25832;45.490;4.912;2023-04-25T03:40:42;12.98;;;7.55;;
40122;SDS011;25832;45.490;4.912;2023-04-25T03:43:07;13.02;;;7.57;;
40122;SDS011;25832;45.490;4.912;2023-04-25T03:45:33;14.82;;;7.13;;
40122;SDS011;25832;45.490;4.912;2023-04-25T03:47:59;11.77;;;7.07;;
40122;SDS011;25832;45.490;4.912;2023-04-25T03:50:25;10.23;;;5.70;;
40122;SDS011;25832;45.490;4.912;2023-04-25T03:52:50;14.00;;;5.18;;
40122;SDS011;25832;45.490;4.912;2023-04-25T03:55:16;8.27;;;4.20;;
40122;SDS011;25832;45.490;4.912;2023-04-25T03:57:41;7.05;;;3.65;;
40122;SDS011;25832;45.490;4.912;2023-04-25T04:00:07;7.35;;;5.03;;
40122;SDS011;25832;45.490;4.912;2023-04-25T04:02:34;7.07;;;5.95;;
40122;SDS011;25832;45.490;4.912;2023-04-25T04:05:01;10.65;;;5.15;;
40122;SDS011;25832;45.490;4.912;2023-04-25T04:07:27;16.83;;;5.72;;
40122;SDS011;25832;45.490;4.912;2023-04-25T04:09:53;6.35;;;4.38;;
40122;SDS011;25832;45.490;4.912;2023-04-25T04:12:18;12.82;;;5.90;;
40122;SDS011;25832;45.490;4.912;2023-04-25T04:14:44;6.57;;;4.45;;
40122;SDS011;25832;45.490;4.912;2023-04-25T04:17:10;9.63;;;4.85;;
40122;SDS011;25832;45.490;4.912;2023-04-25T04:19:36;8.73;;;4.13;;
40122;SDS011;25832;45.490;4.912;2023-04-25T04:22:01;7.35;;;4.78;;
40122;SDS011;25832;45.490;4.912;2023-04-25T04:24:27;10.18;;;5.18;;
40122;SDS011;25832;45.490;4.912;2023-04-25T04:26:53;8.70;;;5.55;;
40122;SDS011;25832;45.490;4.912;2023-04-25T04:29:18;12.32;;;6.47;;
40122;SDS011;25832;45.490;4.912;2023-04-25T04:31:49;8.95;;;5.47;;
40122;SDS011;25832;45.490;4.912;2023-04-25T04:34:16;7.13;;;5.35;;
40122;SDS011;25832;45.490;4.912;2023-04-25T04:36:43;14.95;;;5.32;;
40122;SDS011;25832;45.490;4.912;2023-04-25T04:39:11;6.55;;;4.47;;
40122;SDS011;25832;45.490;4.912;2023-04-25T04:41:37;12.88;;;5.00;;
40122;SDS011;25832;45.490;4.912;2023-04-25T04:44:03;7.25;;;5.43;;
40122;SDS011;25832;45.490;4.912;2023-04-25T04:46:29;12.50;;;5.03;;
40122;SDS011;25832;45.490;4.912;2023-04-25T04:48:56;11.55;;;6.57;;
40122;SDS011;25832;45.490;4.912;2023-04-25T04:51:22;15.63;;;6.15;;
40122;SDS011;25832;45.490;4.912;2023-04-25T04:53:47;13.02;;;6.28;;
40122;SDS011;25832;45.490;4.912;2023-04-25T04:56:13;7.97;;;4.43;;
40122;SDS011;25832;45.490;4.912;2023-04-25T04:58:39;6.57;;;4.78;;
40122;SDS011;25832;45.490;4.912;2023-04-25T05:01:04;10.55;;;6.07;;
40122;SDS011;25832;45.490;4.912;2023-04-25T05:03:31;8.25;;;4.97;;
40122;SDS011;25832;45.490;4.912;2023-04-25T05:05:56;9.13;;;4.40;;
40122;SDS011;25832;45.490;4.912;2023-04-25T05:08:22;11.82;;;5.57;;
40122;SDS011;25832;45.490;4.912;2023-04-25T05:10:47;8.25;;;4.93;;
40122;SDS011;25832;45.490;4.912;2023-04-25T05:13:13;10.15;;;6.15;;
40122;SDS011;25832;45.490;4.912;2023-04-25T05:15:39;12.27;;;5.88;;
40122;SDS011;25832;45.490;4.912;2023-04-25T05:18:04;11.18;;;5.80;;
40122;SDS011;25832;45.490;4.912;2023-04-25T05:20:30;13.10;;;6.03;;
40122;SDS011;25832;45.490;4.912;2023-04-25T05:22:56;7.70;;;5.28;;
40122;SDS011;25832;45.490;4.912;2023-04-25T05:25:21;7.97;;;5.95;;
40122;SDS011;25832;45.490;4.912;2023-04-25T05:27:47;7.43;;;5.50;;
40122;SDS011;25832;45.490;4.912;2023-04-25T05:30:13;12.68;;;5.47;;
40122;SDS011;25832;45.490;4.912;2023-04-25T05:32:38;17.60;;;6.18;;
40122;SDS011;25832;45.490;4.912;2023-04-25T05:35:05;7.68;;;5.78;;
40122;SDS011;25832;45.490;4.912;2023-04-25T05:37:31;8.60;;;5.70;;
40122;SDS011;25832;45.490;4.912;2023-04-25T05:39:57;11.80;;;5.65;;
40122;SDS011;25832;45.490;4.912;2023-04-25T05:42:23;12.00;;;6.43;;
40122;SDS011;25832;45.490;4.912;2023-04-25T05:44:48;10.77;;;5.25;;
40122;SDS011;25832;45.490;4.912;2023-04-25T05:47:14;11.25;;;5.00;;
40122;SDS011;25832;45.490;4.912;2023-04-25T05:49:40;9.45;;;5.18;;
40122;SDS011;25832;45.490;4.912;2023-04-25T05:52:05;10.25;;;5.50;;
40122;SDS011;25832;45.490;4.912;2023-04-25T05:54:31;12.13;;;5.43;;
40122;SDS011;25832;45.490;4.912;2023-04-25T05:56:57;10.73;;;5.63;;
40122;SDS011;25832;45.490;4.912;2023-04-25T05:59:22;10.40;;;5.00;;
40122;SDS011;25832;45.490;4.912;2023-04-25T06:01:48;11.43;;;5.32;;
40122;SDS011;25832;45.490;4.912;2023-04-25T06:04:14;8.15;;;5.03;;
40122;SDS011;25832;45.490;4.912;2023-04-25T06:06:40;11.23;;;5.47;;
40122;SDS011;25832;45.490;4.912;2023-04-25T06:09:05;13.70;;;7.30;;
40122;SDS011;25832;45.490;4.912;2023-04-25T06:11:31;8.27;;;5.15;;
40122;SDS011;25832;45.490;4.912;2023-04-25T06:13:57;9.40;;;5.00;;
40122;SDS011;25832;45.490;4.912;2023-04-25T06:16:22;10.07;;;5.00;;
40122;SDS011;25832;45.490;4.912;2023-04-25T06:18:50;8.52;;;4.63;;
40122;SDS011;25832;45.490;4.912;2023-04-25T06:21:16;10.02;;;5.30;;
40122;SDS011;25832;45.490;4.912;2023-04-25T06:23:42;11.85;;;6.68;;
40122;SDS011;25832;45.490;4.912;2023-04-25T06:26:07;19.17;;;6.93;;
40122;SDS011;25832;45.490;4.912;2023-04-25T06:28:33;9.20;;;5.43;;
40122;SDS011;25832;45.490;4.912;2023-04-25T06:30:59;9.93;;;5.30;;
40122;SDS011;25832;45.490;4.912;2023-04-25T06:33:24;13.98;;;6.22;;
40122;SDS011;25832;45.490;4.912;2023-04-25T06:35:50;16.02;;;6.55;;
40122;SDS011;25832;45.490;4.912;2023-04-25T06:38:16;11.52;;;5.80;;
40122;SDS011;25832;45.490;4.912;2023-04-25T06:40:41;15.90;;;6.30;;
40122;SDS011;25832;45.490;4.912;2023-04-25T06:43:07;10.10;;;6.25;;
40122;SDS011;25832;45.490;4.912;2023-04-25T06:45:32;11.52;;;5.90;;
40122;SDS011;25832;45.490;4.912;2023-04-25T06:47:58;11.95;;;6.82;;
40122;SDS011;25832;45.490;4.912;2023-04-25T06:50:24;14.38;;;7.18;;
40122;SDS011;25832;45.490;4.912;2023-04-25T06:52:49;9.77;;;6.25;;
40122;SDS011;25832;45.490;4.912;2023-04-25T06:55:15;12.63;;;6.28;;
40122;SDS011;25832;45.490;4.912;2023-04-25T06:57:41;10.02;;;5.95;;
40122;SDS011;25832;45.490;4.912;2023-04-25T07:00:07;10.60;;;5.90;;
40122;SDS011;25832;45.490;4.912;2023-04-25T07:02:35;7.93;;;5.85;;
40122;SDS011;25832;45.490;4.912;2023-04-25T07:05:02;14.80;;;6.75;;
40122;SDS011;25832;45.490;4.912;2023-04-25T07:07:29;12.43;;;5.68;;
40122;SDS011;25832;45.490;4.912;2023-04-25T07:09:55;13.25;;;5.80;;
40122;SDS011;25832;45.490;4.912;2023-04-25T07:12:21;11.48;;;6.28;;
40122;SDS011;25832;45.490;4.912;2023-04-25T07:14:47;12.38;;;5.82;;
40122;SDS011;25832;45.490;4.912;2023-04-25T07:17:12;9.05;;;6.32;;
40122;SDS011;25832;45.490;4.912;2023-04-25T07:19:38;9.23;;;6.18;;
40122;SDS011;25832;45.490;4.912;2023-04-25T07:22:05;15.57;;;6.68;;
40122;SDS011;25832;45.490;4.912;2023-04-25T07:24:31;10.60;;;6.30;;
40122;SDS011;25832;45.490;4.912;2023-04-25T07:26:57;13.57;;;5.88;;
40122;SDS011;25832;45.490;4.912;2023-04-25T07:29:23;10.77;;;5.97;;
40122;SDS011;25832;45.490;4.912;2023-04-25T07:31:48;10.80;;;5.28;;
40122;SDS011;25832;45.490;4.912;2023-04-25T07:34:14;13.48;;;6.15;;
40122;SDS011;25832;45.490;4.912;2023-04-25T07:36:40;10.88;;;5.72;;
40122;SDS011;25832;45.490;4.912;2023-04-25T07:39:06;11.60;;;6.38;;
40122;SDS011;25832;45.490;4.912;2023-04-25T07:41:34;12.30;;;6.72;;
40122;SDS011;25832;45.490;4.912;2023-04-25T07:43:59;10.68;;;5.93;;
40122;SDS011;25832;45.490;4.912;2023-04-25T07:46:25;10.57;;;6.47;;
40122;SDS011;25832;45.490;4.912;2023-04-25T07:48:51;10.95;;;6.15;;
40122;SDS011;25832;45.490;4.912;2023-04-25T07:51:16;11.15;;;5.85;;
40122;SDS011;25832;45.490;4.912;2023-04-25T07:53:44;8.98;;;5.80;;
40122;SDS011;25832;45.490;4.912;2023-04-25T07:56:10;10.23;;;6.38;;
40122;SDS011;25832;45.490;4.912;2023-04-25T07:58:36;7.03;;;4.80;;
40122;SDS011;25832;45.490;4.912;2023-04-25T08:01:02;9.73;;;5.68;;
40122;SDS011;25832;45.490;4.912;2023-04-25T08:03:28;12.98;;;5.80;;
40122;SDS011;25832;45.490;4.912;2023-04-25T08:05:53;8.57;;;4.78;;
40122;SDS011;25832;45.490;4.912;2023-04-25T08:08:19;12.15;;;4.80;;
40122;SDS011;25832;45.490;4.912;2023-04-25T08:10:45;10.70;;;4.55;;
40122;SDS011;25832;45.490;4.912;2023-04-25T08:13:11;12.88;;;5.22;;
40122;SDS011;25832;45.490;4.912;2023-04-25T08:15:36;6.57;;;4.40;;
40122;SDS011;25832;45.490;4.912;2023-04-25T08:18:02;7.90;;;3.53;;
40122;SDS011;25832;45.490;4.912;2023-04-25T08:20:28;9.90;;;3.80;;
40122;SDS011;25832;45.490;4.912;2023-04-25T08:22:54;5.10;;;3.15;;
40122;SDS011;25832;45.490;4.912;2023-04-25T08:25:20;4.07;;;3.08;;
40122;SDS011;25832;45.490;4.912;2023-04-25T08:27:45;8.40;;;3.25;;
40122;SDS011;25832;45.490;4.912;2023-04-25T08:30:11;7.57;;;3.95;;
40122;SDS011;25832;45.490;4.912;2023-04-25T08:32:37;5.30;;;4.00;;
40122;SDS011;25832;45.490;4.912;2023-04-25T08:35:03;5.25;;;3.97;;
40122;SDS011;25832;45.490;4.912;2023-04-25T08:37:30;9.73;;;4.50;;
40122;SDS011;25832;45.490;4.912;2023-04-25T08:39:56;9.00;;;4.05;;
40122;SDS011;25832;45.490;4.912;2023-04-25T08:42:21;6.95;;;3.80;;
40122;SDS011;25832;45.490;4.912;2023-04-25T08:44:48;5.97;;;3.33;;
40122;SDS011;25832;45.490;4.912;2023-04-25T08:47:15;7.20;;;3.72;;
40122;SDS011;25832;45.490;4.912;2023-04-25T08:49:42;4.63;;;3.30;;
40122;SDS011;25832;45.490;4.912;2023-04-25T08:52:11;6.53;;;4.53;;
40122;SDS011;25832;45.490;4.912;2023-04-25T08:54:39;9.32;;;3.25;;
40122;SDS011;25832;45.490;4.912;2023-04-25T08:57:09;7.93;;;3.67;;
40122;SDS011;25832;45.490;4.912;2023-04-25T08:59:36;4.63;;;3.80;;
40122;SDS011;25832;45.490;4.912;2023-04-25T09:02:03;7.75;;;3.22;;
40122;SDS011;25832;45.490;4.912;2023-04-25T09:04:30;5.20;;;3.22;;
40122;SDS011;25832;45.490;4.912;2023-04-25T09:06:56;11.48;;;3.58;;
40122;SDS011;25832;45.490;4.912;2023-04-25T09:09:23;5.78;;;3.40;;
40122;SDS011;25832;45.490;4.912;2023-04-25T09:11:49;4.90;;;3.15;;
40122;SDS011;25832;45.490;4.912;2023-04-25T09:14:19;8.85;;;3.38;;
40122;SDS011;25832;45.490;4.912;2023-04-25T09:19:21;3.88;;;2.88;;
40122;SDS011;25832;45.490;4.912;2023-04-25T09:21:51;4.97;;;1.98;;
40122;SDS011;25832;45.490;4.912;2023-04-25T09:24:40;3.65;;;2.53;;
40122;SDS011;25832;45.490;4.912;2023-04-25T09:27:09;3.97;;;2.80;;
40122;SDS011;25832;45.490;4.912;2023-04-25T09:29:36;4.82;;;2.60;;
40122;SDS011;25832;45.490;4.912;2023-04-25T09:32:14;3.85;;;1.98;;
40122;SDS011;25832;45.490;4.912;2023-04-25T09:34:42;4.97;;;2.10;;
40122;SDS011;25832;45.490;4.912;2023-04-25T09:37:10;5.07;;;2.20;;
40122;SDS011;25832;45.490;4.912;2023-04-25T09:39:37;4.30;;;1.92;;
40122;SDS011;25832;45.490;4.912;2023-04-25T09:42:07;2.63;;;1.70;;
40122;SDS011;25832;45.490;4.912;2023-04-25T09:44:35;7.53;;;2.53;;
40122;SDS011;25832;45.490;4.912;2023-04-25T09:47:01;5.65;;;2.50;;
40122;SDS011;25832;45.490;4.912;2023-04-25T09:49:27;5.70;;;2.42;;
40122;SDS011;25832;45.490;4.912;2023-04-25T09:51:57;3.13;;;2.33;;
40122;SDS011;25832;45.490;4.912;2023-04-25T09:54:23;6.35;;;3.90;;
40122;SDS011;25832;45.490;4.912;2023-04-25T09:56:53;5.45;;;2.97;;
40122;SDS011;25832;45.490;4.912;2023-04-25T09:59:22;4.85;;;2.75;;
40122;SDS011;25832;45.490;4.912;2023-04-25T10:01:48;7.07;;;2.92;;
40122;SDS011;25832;45.490;4.912;2023-04-25T10:04:19;6.88;;;3.58;;
40122;SDS011;25832;45.490;4.912;2023-04-25T10:06:53;8.85;;;3.13;;
40122;SDS011;25832;45.490;4.912;2023-04-25T10:09:21;6.20;;;3.53;;
40122;SDS011;25832;45.490;4.912;2023-04-25T10:11:51;4.10;;;2.85;;
40122;SDS011;25832;45.490;4.912;2023-04-25T10:14:18;5.07;;;2.97;;
40122;SDS011;25832;45.490;4.912;2023-04-25T10:16:44;5.03;;;2.70;;
40122;SDS011;25832;45.490;4.912;2023-04-25T10:19:10;6.95;;;2.47;;
40122;SDS011;25832;45.490;4.912;2023-04-25T10:21:40;7.70;;;2.45;;
40122;SDS011;25832;45.490;4.912;2023-04-25T10:24:13;4.15;;;2.65;;
40122;SDS011;25832;45.490;4.912;2023-04-25T10:26:40;3.55;;;2.10;;
40122;SDS011;25832;45.490;4.912;2023-04-25T10:29:06;3.67;;;2.00;;
40122;SDS011;25832;45.490;4.912;2023-04-25T10:31:31;8.32;;;2.15;;
40122;SDS011;25832;45.490;4.912;2023-04-25T10:33:58;6.25;;;2.30;;
40122;SDS011;25832;45.490;4.912;2023-04-25T10:36:25;5.40;;;1.60;;
40122;SDS011;25832;45.490;4.912;2023-04-25T10:38:52;4.32;;;1.95;;
40122;SDS011;25832;45.490;4.912;2023-04-25T10:41:19;4.03;;;1.50;;
40122;SDS011;25832;45.490;4.912;2023-04-25T10:43:47;7.93;;;2.30;;
40122;SDS011;25832;45.490;4.912;2023-04-25T10:46:17;3.80;;;1.67;;
40122;SDS011;25832;45.490;4.912;2023-04-25T10:48:50;8.35;;;2.03;;
40122;SDS011;25832;45.490;4.912;2023-04-25T10:51:19;3.17;;;1.77;;
40122;SDS011;25832;45.490;4.912;2023-04-25T10:54:00;2.67;;;1.65;;
40122;SDS011;25832;45.490;4.912;2023-04-25T10:56:31;3.40;;;1.70;;
40122;SDS011;25832;45.490;4.912;2023-04-25T10:59:12;3.88;;;1.30;;
40122;SDS011;25832;45.490;4.912;2023-04-25T11:01:41;4.00;;;2.35;;
40122;SDS011;25832;45.490;4.912;2023-04-25T11:09:39;4.90;;;1.77;;
40122;SDS011;25832;45.490;4.912;2023-04-25T11:12:06;10.13;;;1.70;;
40122;SDS011;25832;45.490;4.912;2023-04-25T11:14:33;3.95;;;2.10;;
40122;SDS011;25832;45.490;4.912;2023-04-25T11:16:59;9.27;;;2.08;;
40122;SDS011;25832;45.490;4.912;2023-04-25T11:19:26;2.72;;;1.73;;
40122;SDS011;25832;45.490;4.912;2023-04-25T11:21:56;9.50;;;2.00;;
40122;SDS011;25832;45.490;4.912;2023-04-25T11:24:29;7.40;;;1.95;;
40122;SDS011;25832;45.490;4.912;2023-04-25T11:26:56;3.67;;;1.40;;
40122;SDS011;25832;45.490;4.912;2023-04-25T11:29:26;6.13;;;2.00;;
40122;SDS011;25832;45.490;4.912;2023-04-25T11:31:52;3.90;;;1.73;;
40122;SDS011;25832;45.490;4.912;2023-04-25T11:34:18;5.07;;;2.35;;
40122;SDS011;25832;45.490;4.912;2023-04-25T11:36:45;4.13;;;1.88;;
40122;SDS011;25832;45.490;4.912;2023-04-25T11:39:11;6.68;;;2.25;;
40122;SDS011;25832;45.490;4.912;2023-04-25T11:41:37;3.72;;;1.90;;
40122;SDS011;25832;45.490;4.912;2023-04-25T11:44:03;3.55;;;2.28;;
40122;SDS011;25832;45.490;4.912;2023-04-25T11:46:30;2.65;;;1.70;;
40122;SDS011;25832;45.490;4.912;2023-04-25T11:48:56;6.35;;;2.05;;
40122;SDS011;25832;45.490;4.912;2023-04-25T11:51:22;7.68;;;2.28;;
40122;SDS011;25832;45.490;4.912;2023-04-25T11:53:48;8.88;;;2.67;;
40122;SDS011;25832;45.490;4.912;2023-04-25T11:56:13;5.88;;;2.58;;
40122;SDS011;25832;45.490;4.912;2023-04-25T11:59:01;4.00;;;2.92;;
40122;SDS011;25832;45.490;4.912;2023-04-25T12:01:32;8.30;;;2.47;;
40122;SDS011;25832;45.490;4.912;2023-04-25T12:06:37;4.40;;;2.30;;
40122;SDS011;25832;45.490;4.912;2023-04-25T12:09:10;4.13;;;2.67;;
40122;SDS011;25832;45.490;4.912;2023-04-25T12:11:48;4.72;;;2.60;;
40122;SDS011;25832;45.490;4.912;2023-04-25T12:14:21;6.57;;;3.17;;
40122;SDS011;25832;45.490;4.912;2023-04-25T12:16:48;4.55;;;2.08;;
40122;SDS011;25832;45.490;4.912;2023-04-25T12:19:16;3.55;;;2.20;;
40122;SDS011;25832;45.490;4.912;2023-04-25T12:21:43;8.57;;;2.55;;
40122;SDS011;25832;45.490;4.912;2023-04-25T12:24:13;5.13;;;1.90;;
40122;SDS011;25832;45.490;4.912;2023-04-25T12:26:47;6.80;;;2.58;;
40122;SDS011;25832;45.490;4.912;2023-04-25T12:29:21;4.75;;;2.10;;
40122;SDS011;25832;45.490;4.912;2023-04-25T12:31:48;5.20;;;2.42;;
40122;SDS011;25832;45.490;4.912;2023-04-25T12:34:15;5.53;;;1.85;;
40122;SDS011;25832;45.490;4.912;2023-04-25T12:36:41;4.63;;;2.35;;
40122;SDS011;25832;45.490;4.912;2023-04-25T12:39:06;6.55;;;2.67;;
40122;SDS011;25832;45.490;4.912;2023-04-25T12:41:33;3.42;;;2.00;;
40122;SDS011;25832;45.490;4.912;2023-04-25T12:43:58;4.78;;;2.03;;
40122;SDS011;25832;45.490;4.912;2023-04-25T12:46:24;7.75;;;2.38;;
40122;SDS011;25832;45.490;4.912;2023-04-25T12:48:50;5.45;;;1.90;;
40122;SDS011;25832;45.490;4.912;2023-04-25T12:51:15;6.40;;;2.42;;
40122;SDS011;25832;45.490;4.912;2023-04-25T12:53:41;5.22;;;2.05;;
40122;SDS011;25832;45.490;4.912;2023-04-25T12:56:07;6.38;;;1.77;;
40122;SDS011;25832;45.490;4.912;2023-04-25T12:58:33;4.57;;;2.03;;
40122;SDS011;25832;45.490;4.912;2023-04-25T13:00:59;6.72;;;2.45;;
40122;SDS011;25832;45.490;4.912;2023-04-25T13:03:25;4.47;;;1.90;;
40122;SDS011;25832;45.490;4.912;2023-04-25T13:05:51;4.53;;;2.00;;
40122;SDS011;25832;45.490;4.912;2023-04-25T13:08:18;8.07;;;1.95;;
40122;SDS011;25832;45.490;4.912;2023-04-25T13:10:44;5.13;;;2.60;;
40122;SDS011;25832;45.490;4.912;2023-04-25T13:13:09;5.47;;;2.10;;
40122;SDS011;25832;45.490;4.912;2023-04-25T13:15:35;2.58;;;2.00;;
40122;SDS011;25832;45.490;4.912;2023-04-25T13:18:02;4.60;;;2.50;;
40122;SDS011;25832;45.490;4.912;2023-04-25T13:20:29;5.57;;;1.65;;
40122;SDS011;25832;45.490;4.912;2023-04-25T13:22:54;2.22;;;1.70;;
40122;SDS011;25832;45.490;4.912;2023-04-25T13:25:20;4.90;;;2.33;;
40122;SDS011;25832;45.490;4.912;2023-04-25T13:27:46;5.10;;;1.92;;
40122;SDS011;25832;45.490;4.912;2023-04-25T13:30:12;2.83;;;1.98;;
40122;SDS011;25832;45.490;4.912;2023-04-25T13:32:38;4.90;;;2.70;;
40122;SDS011;25832;45.490;4.912;2023-04-25T13:35:05;5.53;;;2.38;;
40122;SDS011;25832;45.490;4.912;2023-04-25T13:37:35;10.27;;;2.47;;
40122;SDS011;25832;45.490;4.912;2023-04-25T13:40:02;3.40;;;1.60;;
40122;SDS011;25832;45.490;4.912;2023-04-25T13:42:33;3.83;;;2.20;;
40122;SDS011;25832;45.490;4.912;2023-04-25T13:44:58;3.65;;;2.40;;
40122;SDS011;25832;45.490;4.912;2023-04-25T13:47:25;2.58;;;1.67;;
40122;SDS011;25832;45.490;4.912;2023-04-25T13:49:51;7.35;;;2.85;;
40122;SDS011;25832;45.490;4.912;2023-04-25T13:52:17;4.10;;;1.73;;
40122;SDS011;25832;45.490;4.912;2023-04-25T13:54:43;6.72;;;1.83;;
40122;SDS011;25832;45.490;4.912;2023-04-25T13:57:09;2.67;;;2.08;;
40122;SDS011;25832;45.490;4.912;2023-04-25T13:59:36;3.83;;;2.20;;
40122;SDS011;25832;45.490;4.912;2023-04-25T14:02:02;4.07;;;2.20;;
40122;SDS011;25832;45.490;4.912;2023-04-25T14:04:28;6.53;;;2.38;;
40122;SDS011;25832;45.490;4.912;2023-04-25T14:06:53;7.78;;;2.42;;
40122;SDS011;25832;45.490;4.912;2023-04-25T14:09:20;2.30;;;1.85;;
40122;SDS011;25832;45.490;4.912;2023-04-25T14:11:50;4.80;;;2.30;;
40122;SDS011;25832;45.490;4.912;2023-04-25T14:14:17;4.57;;;1.98;;
40122;SDS011;25832;45.490;4.912;2023-04-25T14:16:43;5.38;;;2.03;;
40122;SDS011;25832;45.490;4.912;2023-04-25T14:19:09;4.18;;;1.77;;
40122;SDS011;25832;45.490;4.912;2023-04-25T14:21:34;2.75;;;1.70;;
40122;SDS011;25832;45.490;4.912;2023-04-25T14:24:00;4.47;;;1.95;;
40122;SDS011;25832;45.490;4.912;2023-04-25T14:26:26;6.93;;;1.95;;
40122;SDS011;25832;45.490;4.912;2023-04-25T14:28:51;2.72;;;1.73;;
40122;SDS011;25832;45.490;4.912;2023-04-25T14:31:17;3.95;;;1.85;;
40122;SDS011;25832;45.490;4.912;2023-04-25T14:33:43;3.95;;;1.60;;
40122;SDS011;25832;45.490;4.912;2023-04-25T14:36:10;6.72;;;1.67;;
40122;SDS011;25832;45.490;4.912;2023-04-25T14:38:36;3.83;;;1.70;;
40122;SDS011;25832;45.490;4.912;2023-04-25T14:41:01;4.60;;;1.95;;
40122;SDS011;25832;45.490;4.912;2023-04-25T14:43:28;5.00;;;1.83;;
40122;SDS011;25832;45.490;4.912;2023-04-25T14:45:53;2.58;;;2.22;;
40122;SDS011;25832;45.490;4.912;2023-04-25T14:48:19;5.30;;;1.73;;
40122;SDS011;25832;45.490;4.912;2023-04-25T14:50:45;3.75;;;1.90;;